Palm Bay, FL

7:42 AM EST on February 28, 2015 (GMT -0500)
Patrick Air Force Base | Change Station
CLOSE
Current Station
Airport
Location: Cocoa Beach,
Elevation: 10 ft
Nearby Weather Stations

Elev 10 ft 28.24 °N, 80.60 °W | Updated 44 minutes ago

Overcast
Overcast
66 °F
Feels Like 66 °F
N
13
Wind Variable Wind from ENE

Today
High -- | Low -- °F
--% Chance of Precip.
Yesterday
High -- | Low -- °F
Precip. -- in
6:48 AM 6:22 PM
Waxing Gibbous, 77% visible
Pressure 30.27 in
Visibility 10.0 miles
Clouds Few 1300 ft
Overcast 2500 ft
Dew Point 65 °F
Humidity 98%
Rainfall 0.00 in
Snow Depth Not available.
UV 0 out of 12
Pollen 10.40 out of 12
Air Quality Not available.
Flu Activity Not available.
METAR KCOF 281158Z AUTO 06011KT 10SM FEW013 OVC025 19/18 A3026 RMK AO2 OVC V BKN SLP251 70029 T01860182 10187 20179 52015 $

More Conditions Fewer Conditions

Pressure 30.27 in
Visibility 10.0 miles
Clouds Few 1300 ft
Overcast 2500 ft
Dew Point 65 °F
Humidity 98%
Rainfall 0.00 in
Snow Depth Not available.
UV 0 out of 12
Pollen 10.40 out of 12
Air Quality Not available.
Flu Activity Not available.
METAR KCOF 281158Z AUTO 06011KT 10SM FEW013 OVC025 19/18 A3026 RMK AO2 OVC V BKN SLP251 70029 T01860182 10187 20179 52015 $

More Conditions Fewer Conditions

Nowcast | as of 6:16 am EST on February 28, 2015

Easterly winds from the Atlantic and a disturbance across North Florida will generate scattered to numerous showers across east central Florida today. Heavier showers will affect the Treasure Coast this morning with localized rainfall amounts up to an inch. Additional showers will develop farther north into the afternoon. There will be a slight chance for an afternoon lightning storm mainly across the southern Treasure Coast...Okeechobee County and around Lake Okeechobee as daytime heating and additional instability across South Florida allows convection with a few lightning strikes to develop. A Small Craft Advisory continues across the east central Florida Atlantic waters where seas will build over 8 feet offshore as onshore flow strengthens to around 20 knots. There will be rough surf and a moderate risk of rip currents at the Atlantic beaches today. Additional details...including graphics are available online at: http://www.Srh.NOAA.Gov/mlb/blog.Php

×

10-Day Weather Forecast

Almanac

Astronomy

Feb. 28, 2015 Rise Set
Actual Time
Civil Twilight
Nautical Twilight
Astronomical Twilight
Moon
Length of Visible Light
Length of Day
Tomorrow will be .
, % of the Moon is Illuminated

Today's Extremes

State Highs State Lows

Community

WunderPhotos

Upload Photos

1,801,000 photos uploaded!

WunderBlogs® & News

Nearby

Air Quality

  Air Quality AQ Index Pollutant
Not available.

Snow Depth

Station Depth Elevation

Earthquake Activity

City Distance Mag. Time & Date
Minimum magnitude displayed is 2.5.

Coastal Water Temperatures

Place Temperature

Nearby Weather Stations